createdAt,value
2022-12-12T00:01:16.016Z,0.44
2022-12-12T00:03:10.855Z,0.44
2022-12-12T00:05:09.640Z,0.44
2022-12-12T00:07:09.281Z,0.44
2022-12-12T00:09:10.062Z,0.44
2022-12-12T00:11:08.944Z,0.44
2022-12-12T00:13:09.454Z,0.44
2022-12-12T00:15:10.112Z,0.44
2022-12-12T00:17:09.481Z,0.44
2022-12-12T00:19:09.371Z,0.44
2022-12-12T00:21:09.839Z,0.44
2022-12-12T00:23:09.509Z,0.44
2022-12-12T00:25:09.730Z,0.44
2022-12-12T00:27:09.884Z,0.44
2022-12-12T00:29:09.114Z,0.44
2022-12-12T00:31:09.865Z,0.44
2022-12-12T00:33:08.982Z,0.44
2022-12-12T00:35:09.279Z,0.44
2022-12-12T00:37:09.433Z,0.44
2022-12-12T00:39:12.548Z,0.44
2022-12-12T00:41:09.218Z,0.44
2022-12-12T00:43:09.515Z,0.44
2022-12-12T00:45:08.852Z,0.44
2022-12-12T00:47:09.827Z,0.44
2022-12-12T00:49:09.435Z,0.44
2022-12-12T00:51:09.691Z,0.44
2022-12-12T00:53:09.032Z,0.44
2022-12-12T00:55:09.510Z,0.44
2022-12-12T00:57:09.606Z,0.44
2022-12-12T00:59:08.901Z,0.44
2022-12-12T01:01:11.952Z,0.44
2022-12-12T01:03:13.782Z,0.44
2022-12-12T01:05:09.901Z,0.44
2022-12-12T01:07:08.955Z,0.44
2022-12-12T01:09:09.702Z,0.44
2022-12-12T01:11:09.684Z,0.44
2022-12-12T01:13:08.982Z,0.44
2022-12-12T01:15:09.458Z,0.44
2022-12-12T01:17:10.248Z,0.44
2022-12-12T01:19:09.816Z,0.44
2022-12-12T01:21:08.902Z,0.44
2022-12-12T01:23:09.406Z,0.44
2022-12-12T01:25:10.115Z,0.44
2022-12-12T01:27:08.820Z,0.44
2022-12-12T01:29:09.293Z,0.44
2022-12-12T01:31:09.691Z,0.44
2022-12-12T01:33:08.964Z,0.44
2022-12-12T01:35:09.196Z,0.44
2022-12-12T01:37:09.509Z,0.44
2022-12-12T01:39:09.061Z,0.44
2022-12-12T01:41:09.314Z,0.44
2022-12-12T01:43:09.717Z,0.44
2022-12-12T01:45:08.945Z,0.44
2022-12-12T01:47:09.647Z,0.44
2022-12-12T01:49:13.026Z,0.44
2022-12-12T01:51:09.616Z,0.44
2022-12-12T01:53:08.977Z,0.44
2022-12-12T01:55:09.342Z,0.44
2022-12-12T01:57:09.455Z,0.44
2022-12-12T01:59:08.880Z,0.44
2022-12-12T02:01:13.066Z,0.44
2022-12-12T02:03:09.737Z,0.44
2022-12-12T02:05:09.809Z,0.44
2022-12-12T02:07:08.901Z,0.44
2022-12-12T02:09:09.834Z,0.44
2022-12-12T02:11:09.854Z,0.44
2022-12-12T02:13:08.987Z,0.44
2022-12-12T02:15:09.171Z,0.44
2022-12-12T02:17:09.828Z,0.44
2022-12-12T02:19:11.334Z,0.44
2022-12-12T02:21:08.974Z,0.44
2022-12-12T02:23:09.382Z,0.44
2022-12-12T02:25:11.593Z,0.44
2022-12-12T02:27:09.134Z,0.44
2022-12-12T02:29:09.370Z,0.44
2022-12-12T02:31:09.868Z,0.44
2022-12-12T02:33:09.195Z,0.44
2022-12-12T02:35:09.258Z,0.44
2022-12-12T02:37:09.701Z,0.44
2022-12-12T02:39:08.953Z,0.44
2022-12-12T02:41:09.174Z,0.44
2022-12-12T02:43:09.256Z,0.44
2022-12-12T02:45:09.916Z,0.44
2022-12-12T02:47:09.400Z,0.44
2022-12-12T02:49:09.097Z,0.44
2022-12-12T02:51:09.454Z,0.44
2022-12-12T02:53:08.948Z,0.44
2022-12-12T02:55:09.186Z,0.44
2022-12-12T02:57:09.437Z,0.44
2022-12-12T02:59:09.576Z,0.44
2022-12-12T03:01:16.897Z,0.44
2022-12-12T03:03:09.547Z,0.44
2022-12-12T03:05:09.297Z,0.44
2022-12-12T03:07:14.909Z,0.44
2022-12-12T03:09:09.289Z,0.44
2022-12-12T03:11:09.604Z,0.44
2022-12-12T03:13:08.825Z,0.44
2022-12-12T03:15:09.496Z,0.44
2022-12-12T03:17:10.169Z,0.44
2022-12-12T03:19:08.959Z,0.44
2022-12-12T03:21:09.301Z,0.44
2022-12-12T03:23:08.933Z,0.44
2022-12-12T03:25:09.108Z,0.44
2022-12-12T03:27:09.203Z,0.44
2022-12-12T03:29:09.579Z,0.44
2022-12-12T03:31:09.066Z,0.44
2022-12-12T03:33:09.514Z,0.44
2022-12-12T03:35:09.763Z,0.44
2022-12-12T03:37:09.066Z,0.44
2022-12-12T03:39:09.286Z,0.44
2022-12-12T03:41:09.550Z,0.44
2022-12-12T03:43:08.908Z,0.44
2022-12-12T03:45:15.772Z,0.44
2022-12-12T03:47:09.479Z,0.44
2022-12-12T03:49:09.694Z,0.44
2022-12-12T03:51:08.999Z,0.44
2022-12-12T03:53:09.378Z,0.44
2022-12-12T03:55:09.611Z,0.44
2022-12-12T03:57:09.744Z,0.44
2022-12-12T03:59:09.034Z,0.44
2022-12-12T04:01:12.513Z,0.44
2022-12-12T04:03:10.021Z,0.44
2022-12-12T04:05:08.764Z,0.44
2022-12-12T04:07:09.199Z,0.44
2022-12-12T04:09:09.952Z,0.44
2022-12-12T04:11:08.902Z,0.44
2022-12-12T04:13:09.297Z,0.44
2022-12-12T04:15:09.415Z,0.44
2022-12-12T04:17:10.234Z,0.44
2022-12-12T04:19:08.968Z,0.44
2022-12-12T04:21:09.734Z,0.44
2022-12-12T04:23:16.104Z,0.44
2022-12-12T04:25:09.160Z,0.44
2022-12-12T04:27:09.612Z,0.44
2022-12-12T04:29:08.954Z,0.44
2022-12-12T04:31:09.361Z,0.44
2022-12-12T04:33:09.539Z,0.44
2022-12-12T04:35:09.975Z,0.44
2022-12-12T04:37:09.133Z,0.44
2022-12-12T04:39:09.392Z,0.44
2022-12-12T04:41:09.757Z,0.44
2022-12-12T04:43:09.028Z,0.44
2022-12-12T04:45:09.577Z,0.44
2022-12-12T04:47:09.897Z,0.44
2022-12-12T04:49:16.011Z,0.44
2022-12-12T04:51:09.346Z,0.44
2022-12-12T04:53:13.336Z,0.44
2022-12-12T04:55:09.091Z,0.44
2022-12-12T04:57:09.355Z,0.44
2022-12-12T04:59:09.658Z,0.44
2022-12-12T05:01:12.186Z,0.44
2022-12-12T05:03:09.579Z,0.44
2022-12-12T05:05:09.807Z,0.44
2022-12-12T05:07:09.012Z,0.44
2022-12-12T05:09:09.527Z,0.44
2022-12-12T05:11:09.609Z,0.44
2022-12-12T05:13:08.892Z,0.44
2022-12-12T05:15:09.426Z,0.44
2022-12-12T05:17:10.096Z,0.44
2022-12-12T05:19:08.819Z,0.44
2022-12-12T05:21:09.317Z,0.44
2022-12-12T05:23:09.834Z,0.44
2022-12-12T05:25:09.155Z,0.44
2022-12-12T05:27:09.396Z,0.44
2022-12-12T05:29:16.639Z,0.44
2022-12-12T05:31:09.722Z,0.44
2022-12-12T05:33:09.633Z,0.44
2022-12-12T05:35:08.895Z,0.44
2022-12-12T05:37:09.270Z,0.44
2022-12-12T05:39:09.675Z,0.44
2022-12-12T05:41:09.080Z,0.44
2022-12-12T05:43:09.421Z,0.44
2022-12-12T05:45:09.947Z,0.44
2022-12-12T05:47:08.995Z,0.44
2022-12-12T05:49:09.849Z,0.44
2022-12-12T05:51:09.548Z,0.44
2022-12-12T05:53:09.128Z,0.44
2022-12-12T05:55:09.341Z,0.44
2022-12-12T05:57:09.430Z,0.44
2022-12-12T05:59:09.793Z,0.44
2022-12-12T06:01:14.882Z,0.44
2022-12-12T06:03:09.946Z,0.44
2022-12-12T06:05:10.252Z,0.44
2022-12-12T06:07:09.067Z,0.44
2022-12-12T06:09:10.628Z,0.44
2022-12-12T06:11:09.492Z,0.44
2022-12-12T06:13:08.927Z,0.44
2022-12-12T06:15:09.316Z,0.44
2022-12-12T06:17:09.779Z,0.44
2022-12-12T06:19:09.005Z,0.44
2022-12-12T06:21:09.399Z,0.44
2022-12-12T06:23:16.339Z,0.44
2022-12-12T06:25:08.980Z,0.44
2022-12-12T06:27:09.363Z,0.44
2022-12-12T06:29:09.834Z,0.44
2022-12-12T06:31:11.757Z,0.44
2022-12-12T06:33:09.218Z,0.44
2022-12-12T06:35:09.806Z,0.44
2022-12-12T06:37:14.160Z,0.44
2022-12-12T06:39:09.276Z,0.44
2022-12-12T06:41:09.558Z,0.44
2022-12-12T06:43:10.955Z,0.44
2022-12-12T06:45:09.465Z,0.44
2022-12-12T06:47:09.913Z,0.44
2022-12-12T06:49:08.829Z,0.44
2022-12-12T06:51:09.362Z,0.44
2022-12-12T06:53:09.593Z,0.44
2022-12-12T06:55:09.766Z,0.44
2022-12-12T06:57:11.300Z,0.44
2022-12-12T06:59:09.396Z,0.44
2022-12-12T07:01:12.073Z,0.44
2022-12-12T07:03:15.571Z,0.44
2022-12-12T07:05:09.385Z,0.44
2022-12-12T07:07:09.765Z,0.44
2022-12-12T07:09:09.258Z,0.44
2022-12-12T07:11:09.532Z,0.44
2022-12-12T07:13:10.438Z,0.44
2022-12-12T07:15:09.212Z,0.44
2022-12-12T07:17:09.975Z,0.44
2022-12-12T07:19:09.046Z,0.44
2022-12-12T07:21:09.399Z,0.44
2022-12-12T07:23:17.649Z,0.44
2022-12-12T07:25:08.891Z,0.44
2022-12-12T07:27:09.301Z,0.44
2022-12-12T07:29:09.668Z,0.44
2022-12-12T07:31:09.339Z,0.44
2022-12-12T07:33:09.311Z,0.44
2022-12-12T07:35:08.820Z,0.44
2022-12-12T07:37:14.705Z,0.44
2022-12-12T07:39:09.642Z,0.44
2022-12-12T07:41:08.892Z,0.44
2022-12-12T07:43:09.315Z,0.44
2022-12-12T07:45:14.970Z,0.44
2022-12-12T07:47:09.800Z,0.44
2022-12-12T07:49:09.201Z,0.44
2022-12-12T07:51:09.492Z,0.44
2022-12-12T07:53:09.588Z,0.44
2022-12-12T07:55:08.934Z,0.44
2022-12-12T07:57:09.011Z,0.44
2022-12-12T07:59:09.439Z,0.44
2022-12-12T08:01:14.586Z,0.44
2022-12-12T08:03:09.146Z,0.44
2022-12-12T08:05:09.829Z,0.44
2022-12-12T08:07:18.246Z,0.44
2022-12-12T08:09:09.253Z,0.44
2022-12-12T08:11:09.167Z,0.44
2022-12-12T08:13:09.426Z,0.44
2022-12-12T08:15:09.868Z,0.44
2022-12-12T08:17:09.338Z,0.44
2022-12-12T08:19:09.167Z,0.44
2022-12-12T08:21:09.847Z,0.44
2022-12-12T08:23:09.156Z,0.44
2022-12-12T08:25:09.257Z,0.44
2022-12-12T08:27:12.251Z,0.44
2022-12-12T08:29:08.948Z,0.44
2022-12-12T08:31:09.288Z,0.44
2022-12-12T08:33:19.250Z,0.44
2022-12-12T08:35:08.899Z,0.44
2022-12-12T08:37:09.204Z,0.44
2022-12-12T08:39:09.150Z,0.44
2022-12-12T08:41:09.408Z,0.44
2022-12-12T08:43:09.710Z,0.44
2022-12-12T08:45:09.081Z,0.44
2022-12-12T08:47:14.774Z,0.44
2022-12-12T08:49:09.663Z,0.44
2022-12-12T08:51:08.898Z,0.44
2022-12-12T08:53:09.041Z,0.44
2022-12-12T08:55:09.092Z,0.44
2022-12-12T08:57:09.476Z,0.44
2022-12-12T08:59:09.801Z,0.44
2022-12-12T09:01:12.409Z,0.44
2022-12-12T09:03:10.511Z,0.44
2022-12-12T09:05:09.580Z,0.44
2022-12-12T09:07:09.103Z,0.44
2022-12-12T09:09:09.783Z,0.44
2022-12-12T09:11:09.697Z,0.44
2022-12-12T09:13:15.574Z,0.44
2022-12-12T09:15:09.356Z,0.44
2022-12-12T09:17:09.901Z,0.44
2022-12-12T09:19:11.972Z,0.44
2022-12-12T09:21:09.448Z,0.44
2022-12-12T09:23:09.566Z,0.44
2022-12-12T09:25:08.888Z,0.44
2022-12-12T09:27:09.206Z,0.44
2022-12-12T09:29:09.626Z,0.44
2022-12-12T09:31:09.001Z,0.44
2022-12-12T09:33:10.105Z,0.44
2022-12-12T09:35:09.357Z,0.44
2022-12-12T09:37:09.782Z,0.44
2022-12-12T09:39:11.282Z,0.44
2022-12-12T09:41:09.264Z,0.44
2022-12-12T09:43:09.593Z,0.44
2022-12-12T09:45:08.853Z,0.44
2022-12-12T09:47:09.270Z,0.44
2022-12-12T09:49:09.599Z,0.44
2022-12-12T09:51:09.433Z,0.44
2022-12-12T09:53:15.923Z,0.44
2022-12-12T09:55:09.683Z,0.44
2022-12-12T09:57:09.100Z,0.44
2022-12-12T09:59:13.893Z,0.44
2022-12-12T10:01:13.593Z,0.44
2022-12-12T10:03:09.801Z,0.44
2022-12-12T10:05:13.704Z,0.44
2022-12-12T10:07:43.288Z,0.44
2022-12-12T10:09:09.792Z,0.44
2022-12-12T10:11:09.364Z,0.44
2022-12-12T10:13:15.708Z,0.44
2022-12-12T10:15:09.751Z,0.44
2022-12-12T10:17:12.713Z,0.44
2022-12-12T10:19:09.527Z,0.44
2022-12-12T10:21:09.387Z,0.44
2022-12-12T10:23:09.533Z,0.44
2022-12-12T10:25:09.487Z,0.44
2022-12-12T10:27:08.912Z,0.44
2022-12-12T10:29:09.162Z,0.44
2022-12-12T10:31:10.219Z,0.44
2022-12-12T10:33:08.972Z,0.44
2022-12-12T10:35:16.909Z,0.44
2022-12-12T10:37:09.500Z,0.44
2022-12-12T10:39:09.494Z,0.44
2022-12-12T10:41:09.851Z,0.44
2022-12-12T10:43:09.336Z,0.44
2022-12-12T10:45:10.460Z,0.44
2022-12-12T10:47:09.977Z,0.44
2022-12-12T10:49:09.223Z,0.44
2022-12-12T10:51:10.077Z,0.44
2022-12-12T10:53:08.960Z,0.44
2022-12-12T10:55:09.366Z,0.44
2022-12-12T10:57:11.836Z,0.44
2022-12-12T10:59:09.046Z,0.44
2022-12-12T11:01:13.055Z,0.44
2022-12-12T11:03:23.169Z,0.44
2022-12-12T11:05:09.625Z,0.44
2022-12-12T11:07:08.836Z,0.44
2022-12-12T11:09:09.377Z,0.44
2022-12-12T11:11:18.545Z,0.44
2022-12-12T11:13:09.703Z,0.44
2022-12-12T11:15:08.918Z,0.44
2022-12-12T11:17:10.471Z,0.44
2022-12-12T11:19:14.197Z,0.44
2022-12-12T11:21:09.825Z,0.44
2022-12-12T11:23:10.603Z,0.44
2022-12-12T11:25:09.115Z,0.44
2022-12-12T11:27:09.625Z,0.44
2022-12-12T11:29:14.473Z,0.44
2022-12-12T11:31:09.089Z,0.44
2022-12-12T11:33:09.391Z,0.44
2022-12-12T11:35:09.557Z,0.44
2022-12-12T11:37:08.729Z,0.44
2022-12-12T11:39:09.207Z,0.44
2022-12-12T11:41:09.595Z,0.44
2022-12-12T11:43:08.722Z,39.8
2022-12-12T11:45:16.429Z,39.8
2022-12-12T11:47:09.794Z,39.8
2022-12-12T11:49:09.975Z,0.1
2022-12-12T11:51:15.417Z,0.1
2022-12-12T11:53:09.395Z,0.1
2022-12-12T11:55:09.449Z,4.87
2022-12-12T11:57:09.691Z,4.87
2022-12-12T11:59:11.567Z,4.87
2022-12-12T12:01:12.664Z,3.26
2022-12-12T12:03:09.843Z,3.26
2022-12-12T12:05:16.155Z,3.26
2022-12-12T12:07:09.753Z,0.03
2022-12-12T12:09:09.533Z,0.03
2022-12-12T12:11:10.147Z,0.03
2022-12-12T12:13:09.644Z,0.02
2022-12-12T12:15:09.813Z,0.02
2022-12-12T12:17:09.920Z,0.02
2022-12-12T12:19:13.402Z,1.86
2022-12-12T12:21:10.024Z,1.86
2022-12-12T12:23:09.198Z,1.86
2022-12-12T12:25:09.744Z,0.02
2022-12-12T12:27:10.118Z,0.02
2022-12-12T12:29:09.238Z,0.02
2022-12-12T12:31:10.280Z,0.02
2022-12-12T12:33:09.575Z,0.02
2022-12-12T12:35:08.871Z,0.02
2022-12-12T12:37:17.109Z,0.02
2022-12-12T12:39:09.796Z,0.01
2022-12-12T12:41:09.339Z,0.01
2022-12-12T12:43:12.552Z,0.01
2022-12-12T12:45:09.575Z,1.35
2022-12-12T12:47:09.570Z,1.35
2022-12-12T12:49:14.848Z,1.35
2022-12-12T12:51:10.211Z,1.3
2022-12-12T12:53:09.573Z,1.3
2022-12-12T12:55:09.046Z,1.3
2022-12-12T12:57:17.365Z,1.23
2022-12-12T12:59:09.241Z,1.23
2022-12-12T13:01:13.365Z,1.23
2022-12-12T13:03:12.933Z,0.01
2022-12-12T13:05:08.846Z,0.01
2022-12-12T13:07:09.241Z,0.01
2022-12-12T13:09:10.136Z,1.15
2022-12-12T13:11:10.120Z,1.15
2022-12-12T13:13:09.547Z,1.15
2022-12-12T13:15:15.353Z,1.15
2022-12-12T13:17:09.839Z,1.15
2022-12-12T13:19:19.515Z,1.15
2022-12-12T13:21:13.241Z,1.15
2022-12-12T13:23:09.693Z,1.15
2022-12-12T13:25:23.711Z,1.15
2022-12-12T13:27:09.255Z,1.15
2022-12-12T13:29:09.494Z,1.15
2022-12-12T13:31:13.230Z,1.15
2022-12-12T13:33:09.515Z,0.01
2022-12-12T13:35:09.503Z,0.01
2022-12-12T13:37:15.068Z,1.1
2022-12-12T13:39:09.268Z,1.1
2022-12-12T13:41:10.284Z,1.1
2022-12-12T13:43:10.320Z,1.1
2022-12-12T13:45:09.335Z,1.05
2022-12-12T13:47:09.973Z,1.05
2022-12-12T13:49:11.270Z,1.05
2022-12-12T13:51:09.990Z,1.03
2022-12-12T13:53:09.469Z,1.03
2022-12-12T13:55:16.307Z,0.01
2022-12-12T13:57:09.064Z,0.01
2022-12-12T13:59:09.265Z,0.01
2022-12-12T14:01:13.243Z,0.01
2022-12-12T14:03:13.535Z,1.02
2022-12-12T14:05:09.153Z,1.02
2022-12-12T14:07:09.366Z,1.02
2022-12-12T14:09:10.155Z,0.01
2022-12-12T14:11:11.110Z,0.01
2022-12-12T14:13:16.741Z,1.04
2022-12-12T14:15:09.427Z,1.04
2022-12-12T14:17:09.143Z,1.04
2022-12-12T14:19:15.250Z,1.04
2022-12-12T14:21:09.877Z,0.01
2022-12-12T14:23:09.009Z,0.01
2022-12-12T14:25:11.132Z,0.01
2022-12-12T14:27:09.512Z,1.05
2022-12-12T14:29:08.879Z,1.05
2022-12-12T14:31:09.900Z,1.05
2022-12-12T14:33:09.628Z,1.04
2022-12-12T14:35:09.646Z,1.04
2022-12-12T14:37:08.972Z,1.04
2022-12-12T14:39:13.162Z,0.01
2022-12-12T14:41:09.657Z,0.01
2022-12-12T14:44:35.202Z,0.01
2022-12-12T14:45:47.574Z,0.01
2022-12-12T14:47:09.399Z,0.01
2022-12-12T14:49:09.659Z,0.01
2022-12-12T14:51:09.571Z,0.01
2022-12-12T14:53:09.603Z,0.01
2022-12-12T14:55:09.744Z,0.01
2022-12-12T14:57:15.006Z,0.01
2022-12-12T14:59:09.016Z,0.01
2022-12-12T15:01:13.022Z,0.01
2022-12-12T15:03:10.677Z,1.04
2022-12-12T15:05:16.338Z,1.04
2022-12-12T15:07:09.037Z,1.04
2022-12-12T15:09:09.540Z,1.04
2022-12-12T15:11:10.203Z,1.04
2022-12-12T15:13:09.265Z,1.04
2022-12-12T15:15:09.456Z,1.04
2022-12-12T15:17:11.371Z,1.04
2022-12-12T15:19:09.417Z,1.04
2022-12-12T15:21:09.712Z,1.03
2022-12-12T15:23:09.774Z,1.03
2022-12-12T15:25:09.166Z,1.03
2022-12-12T15:27:09.283Z,0.01
2022-12-12T15:29:09.003Z,0.01
2022-12-12T15:31:10.344Z,0.01
2022-12-12T15:33:10.234Z,0.01
2022-12-12T15:35:08.970Z,0.01
2022-12-12T15:37:10.893Z,0.01
2022-12-12T15:39:09.094Z,1.02
2022-12-12T15:41:13.019Z,1.02
2022-12-12T15:43:09.633Z,0.01
2022-12-12T15:45:08.986Z,0.01
2022-12-12T15:47:09.763Z,0.01
2022-12-12T15:49:09.759Z,0.01
2022-12-12T15:51:09.500Z,0.01
2022-12-12T15:53:09.412Z,0.01
2022-12-12T15:55:09.583Z,0.01
2022-12-12T15:57:08.849Z,0.01
2022-12-12T15:59:14.944Z,0.01
2022-12-12T16:01:20.142Z,0.01
2022-12-12T16:03:09.281Z,0.01
2022-12-12T16:05:09.337Z,0.01
2022-12-12T16:07:09.834Z,0.01
2022-12-12T16:09:16.555Z,0.01
2022-12-12T16:11:09.766Z,0.01
2022-12-12T16:13:09.321Z,0.01
2022-12-12T16:15:14.802Z,0.01
2022-12-12T16:17:09.311Z,0.01
2022-12-12T16:19:09.151Z,0.01
2022-12-12T16:21:15.729Z,0.9
2022-12-12T16:23:09.199Z,0.9
2022-12-12T16:25:09.299Z,0.87
2022-12-12T16:27:09.354Z,0.01
2022-12-12T16:29:10.721Z,0.01
2022-12-12T16:31:09.934Z,0.01
2022-12-12T16:33:09.110Z,0.01
2022-12-12T16:35:09.285Z,0.01
2022-12-12T16:37:16.079Z,0.01
2022-12-12T16:39:09.686Z,0.01
2022-12-12T16:41:10.138Z,0.01
2022-12-12T16:43:11.307Z,0.01
2022-12-12T16:45:09.385Z,0.01
2022-12-12T16:47:09.795Z,0.01
2022-12-12T16:49:15.166Z,0.01
2022-12-12T16:51:09.393Z,0.01
2022-12-12T16:53:09.132Z,0.01
2022-12-12T16:55:16.247Z,0.01
2022-12-12T16:57:09.472Z,0.01
2022-12-12T16:59:08.955Z,0.01
2022-12-12T17:01:14.476Z,0.01
2022-12-12T17:03:09.351Z,0.01
2022-12-12T17:05:10.022Z,0.01
2022-12-12T17:07:09.086Z,0.01
2022-12-12T17:09:09.906Z,0.01
2022-12-12T17:11:22.012Z,0.01
2022-12-12T17:13:08.951Z,0.01
2022-12-12T17:15:09.219Z,0.01
2022-12-12T17:17:14.408Z,0.01
2022-12-12T17:19:09.545Z,0.01
2022-12-12T17:21:13.141Z,0.01
2022-12-12T17:23:41.436Z,0.01
2022-12-12T17:25:09.501Z,0.01
2022-12-12T17:27:12.172Z,0.01
2022-12-12T17:29:09.260Z,0.01
2022-12-12T17:31:10.195Z,0.01
2022-12-12T17:33:49.845Z,4.39
2022-12-12T17:35:08.927Z,4.39
2022-12-12T17:37:09.589Z,4.39
2022-12-12T17:39:12.977Z,2.4
2022-12-12T17:41:09.520Z,2.4
2022-12-12T17:43:09.439Z,2.4
2022-12-12T17:45:09.629Z,2.4
2022-12-12T17:47:09.805Z,2.4
2022-12-12T17:49:09.219Z,2.4
2022-12-12T17:51:15.730Z,2.4
2022-12-12T17:53:09.739Z,2.4
2022-12-12T17:56:24.077Z,2.4
2022-12-12T17:57:16.045Z,2.4
2022-12-12T17:59:14.986Z,2.4
2022-12-12T18:01:12.790Z,2.4
2022-12-12T18:03:09.291Z,2.4
2022-12-12T18:05:13.890Z,2.4
2022-12-12T18:07:09.971Z,2.4
2022-12-12T18:09:09.188Z,2.4
2022-12-12T18:11:09.838Z,2.4
2022-12-12T18:13:14.428Z,2.4
2022-12-12T18:15:09.833Z,2.4
2022-12-12T18:17:09.859Z,2.4
2022-12-12T18:19:09.325Z,2.4
2022-12-12T18:21:42.871Z,2.4
2022-12-12T18:23:10.298Z,2.4
2022-12-12T18:25:09.214Z,2.4
2022-12-12T18:27:16.549Z,2.4
2022-12-12T18:29:09.927Z,2.4
2022-12-12T18:31:09.887Z,2.4
2022-12-12T18:33:14.465Z,2.4
2022-12-12T18:35:09.165Z,2.4
2022-12-12T18:37:09.626Z,2.4
2022-12-12T18:39:10.551Z,2.4
2022-12-12T18:41:09.421Z,2.4
2022-12-12T18:43:09.508Z,2.4
2022-12-12T18:45:09.622Z,0.05
2022-12-12T18:47:17.064Z,0.05
2022-12-12T18:49:09.056Z,0.05
2022-12-12T18:51:10.183Z,0.05
2022-12-12T18:53:09.788Z,0.05
2022-12-12T18:55:11.816Z,0.05
2022-12-12T18:57:09.448Z,0.05
2022-12-12T18:59:09.873Z,0.05
2022-12-12T19:01:13.148Z,0.05
2022-12-12T19:03:10.140Z,0.05
2022-12-12T19:05:20.148Z,0.05
2022-12-12T19:07:09.227Z,0.05
2022-12-12T19:09:09.716Z,0.05
2022-12-12T19:11:09.621Z,0.05
2022-12-12T19:13:10.480Z,0.05
2022-12-12T19:15:42.380Z,0.05
2022-12-12T19:17:09.387Z,0.05
2022-12-12T19:19:09.087Z,0.05
2022-12-12T19:21:10.284Z,0.05
2022-12-12T19:23:41.960Z,0.05
2022-12-12T19:25:09.107Z,0.05
2022-12-12T19:27:09.291Z,0.05
2022-12-12T19:29:09.478Z,0.05
2022-12-12T19:31:09.766Z,0.05
2022-12-12T19:33:09.240Z,0.05
2022-12-12T19:35:09.677Z,0.05
2022-12-12T19:37:08.984Z,0.05
2022-12-12T19:39:09.830Z,0.05
2022-12-12T19:41:10.313Z,0.05
2022-12-12T19:43:09.028Z,0.05
2022-12-12T19:45:17.010Z,0.05
2022-12-12T19:47:10.109Z,0.05
2022-12-12T19:49:08.992Z,0.05
2022-12-12T19:51:10.129Z,0.05
2022-12-12T19:53:10.967Z,6.88
2022-12-12T19:55:08.878Z,6.88
2022-12-12T19:57:09.432Z,6.88
2022-12-12T19:59:12.671Z,6.88
2022-12-12T20:01:12.246Z,6.88
2022-12-12T20:03:09.563Z,6.88
2022-12-12T20:05:09.633Z,6.88
2022-12-12T20:07:08.985Z,6.88
2022-12-12T20:09:09.515Z,6.88
2022-12-12T20:11:10.288Z,6.88
2022-12-12T20:13:20.976Z,6.88
2022-12-12T20:15:09.713Z,6.88
2022-12-12T20:17:09.385Z,6.88
2022-12-12T20:19:12.896Z,6.88
2022-12-12T20:21:20.494Z,6.88
2022-12-12T20:23:11.189Z,6.88
2022-12-12T20:25:09.276Z,6.88
2022-12-12T20:27:09.807Z,6.88
2022-12-12T20:29:08.971Z,6.88
2022-12-12T20:31:16.227Z,6.88
2022-12-12T20:33:08.933Z,6.88
2022-12-12T20:35:09.255Z,6.88
2022-12-12T20:37:09.661Z,6.88
2022-12-12T20:39:08.890Z,6.88
2022-12-12T20:41:09.868Z,6.88
2022-12-12T20:43:16.778Z,6.88
2022-12-12T20:45:09.365Z,6.88
2022-12-12T20:47:09.811Z,6.88
2022-12-12T20:49:15.097Z,6.88
2022-12-12T20:51:31.008Z,6.88
2022-12-12T20:53:09.605Z,6.88
2022-12-12T20:55:09.931Z,6.88
2022-12-12T20:57:20.235Z,6.88
2022-12-12T20:59:09.162Z,6.88
2022-12-12T21:01:12.586Z,6.88
2022-12-12T21:03:15.630Z,6.88
2022-12-12T21:05:08.819Z,6.88
2022-12-12T21:07:09.238Z,6.88
2022-12-12T21:09:10.973Z,6.88
2022-12-12T21:11:08.801Z,6.88
2022-12-12T21:13:09.301Z,6.88
2022-12-12T21:15:14.278Z,6.88
2022-12-12T21:17:09.041Z,6.88
2022-12-12T21:19:09.080Z,6.88
2022-12-12T21:21:14.540Z,6.88
2022-12-12T21:23:08.850Z,6.88
2022-12-12T21:25:09.017Z,6.88
2022-12-12T21:27:15.397Z,6.88
2022-12-12T21:29:09.817Z,6.88
2022-12-12T21:31:09.231Z,6.88
2022-12-12T21:33:09.351Z,6.88
2022-12-12T21:35:09.711Z,6.88
2022-12-12T21:37:09.124Z,6.88
2022-12-12T21:39:09.175Z,6.88
2022-12-12T21:41:09.481Z,6.88
2022-12-12T21:43:09.195Z,6.88
2022-12-12T21:45:11.461Z,6.88
2022-12-12T21:47:09.313Z,6.88
2022-12-12T21:49:09.131Z,6.88
2022-12-12T21:51:15.838Z,6.88
2022-12-12T21:53:09.005Z,6.88
2022-12-12T21:55:09.093Z,6.88
2022-12-12T21:57:09.535Z,6.88
2022-12-12T21:59:08.865Z,6.88
2022-12-12T22:01:11.943Z,6.88
2022-12-12T22:03:13.072Z,6.88
2022-12-12T22:05:09.508Z,6.88
2022-12-12T22:07:09.061Z,6.88
2022-12-12T22:09:09.576Z,6.88
2022-12-12T22:12:03.642Z,6.88
2022-12-12T22:13:20.162Z,6.88
2022-12-12T22:15:09.563Z,6.88
2022-12-12T22:17:09.079Z,6.88
2022-12-12T22:19:16.692Z,6.88
2022-12-12T22:21:09.638Z,6.88
2022-12-12T22:23:08.919Z,6.88
2022-12-12T22:25:09.131Z,6.88
2022-12-12T22:27:09.691Z,6.88
2022-12-12T22:29:09.180Z,6.88
2022-12-12T22:31:09.344Z,6.88
2022-12-12T22:33:09.421Z,6.88
2022-12-12T22:35:09.019Z,6.88
2022-12-12T22:37:09.326Z,6.88
2022-12-12T22:39:12.358Z,6.88
2022-12-12T22:41:08.850Z,6.88
2022-12-12T22:43:09.315Z,6.88
2022-12-12T22:45:09.689Z,6.88
2022-12-12T22:47:16.258Z,6.88
2022-12-12T22:49:09.169Z,6.88
2022-12-12T22:51:09.821Z,6.88
2022-12-12T22:53:08.933Z,6.88
2022-12-12T22:55:09.103Z,6.88
2022-12-12T22:57:09.554Z,6.88
2022-12-12T22:59:09.017Z,6.88
2022-12-12T23:01:18.013Z,6.88
2022-12-12T23:03:10.923Z,6.88
2022-12-12T23:05:10.272Z,6.88
2022-12-12T23:07:09.735Z,6.88
2022-12-12T23:09:09.102Z,6.88
2022-12-12T23:11:09.089Z,6.88
2022-12-12T23:13:09.500Z,6.88
2022-12-12T23:15:08.909Z,6.88
2022-12-12T23:17:09.607Z,6.88
2022-12-12T23:19:09.663Z,6.88
2022-12-12T23:21:13.368Z,6.88
2022-12-12T23:23:09.132Z,6.88
2022-12-12T23:25:09.360Z,6.88
2022-12-12T23:27:08.948Z,6.88
2022-12-12T23:29:10.592Z,6.88
2022-12-12T23:31:09.713Z,6.88
2022-12-12T23:33:09.116Z,6.88
2022-12-12T23:35:09.390Z,6.88
2022-12-12T23:37:09.545Z,6.88
2022-12-12T23:39:09.065Z,6.88
2022-12-12T23:41:09.363Z,6.88
2022-12-12T23:43:08.849Z,6.88
2022-12-12T23:45:13.807Z,6.88
2022-12-12T23:47:09.626Z,6.88
2022-12-12T23:49:10.015Z,6.88
2022-12-12T23:51:09.204Z,6.88
2022-12-12T23:53:10.789Z,6.88
2022-12-12T23:55:09.599Z,6.88
2022-12-12T23:57:09.854Z,6.88
2022-12-12T23:59:15.516Z,6.88
